RJTL(METAR)
01/24 01:00
METAR RJTL 231600Z 30003KT 240V010 9999 FEW030 M00/M13 Q1016 RMK
1CU030 A3001=
戻る
トップページへ戻る
IMOC Co,.Ltd.